sensor_id;sensor_type;location;lat;lon;timestamp;temperature;humidity
21115;DHT22;10715;48.546;9.896;2024-03-29T00:00:53;0.90;99.90
21115;DHT22;10715;48.546;9.896;2024-03-29T00:03:19;0.90;99.90
21115;DHT22;10715;48.546;9.896;2024-03-29T00:05:45;0.80;99.90
21115;DHT22;10715;48.546;9.896;2024-03-29T00:08:11;0.90;99.90
21115;DHT22;10715;48.546;9.896;2024-03-29T00:10:37;0.90;99.90
21115;DHT22;10715;48.546;9.896;2024-03-29T00:13:04;0.80;99.90
21115;DHT22;10715;48.546;9.896;2024-03-29T00:15:31;0.80;99.90
21115;DHT22;10715;48.546;9.896;2024-03-29T00:17:57;0.80;99.90
21115;DHT22;10715;48.546;9.896;2024-03-29T00:20:23;0.90;99.90
21115;DHT22;10715;48.546;9.896;2024-03-29T00:22:49;0.80;99.90
21115;DHT22;10715;48.546;9.896;2024-03-29T00:25:15;0.90;99.90
21115;DHT22;10715;48.546;9.896;2024-03-29T00:27:40;0.90;99.90
21115;DHT22;10715;48.546;9.896;2024-03-29T00:30:07;0.90;99.90
21115;DHT22;10715;48.546;9.896;2024-03-29T00:32:32;0.90;99.90
21115;DHT22;10715;48.546;9.896;2024-03-29T00:34:58;0.90;99.90
21115;DHT22;10715;48.546;9.896;2024-03-29T00:37:24;0.90;99.90
21115;DHT22;10715;48.546;9.896;2024-03-29T00:39:50;0.90;99.90
21115;DHT22;10715;48.546;9.896;2024-03-29T00:42:16;1.00;99.90
21115;DHT22;10715;48.546;9.896;2024-03-29T00:44:42;1.00;99.90
21115;DHT22;10715;48.546;9.896;2024-03-29T00:47:08;1.00;99.90
21115;DHT22;10715;48.546;9.896;2024-03-29T00:49:35;1.00;99.90
21115;DHT22;10715;48.546;9.896;2024-03-29T00:52:02;1.00;99.90
21115;DHT22;10715;48.546;9.896;2024-03-29T00:54:28;1.00;99.90
21115;DHT22;10715;48.546;9.896;2024-03-29T00:56:53;1.00;99.90
21115;DHT22;10715;48.546;9.896;2024-03-29T00:59:19;1.00;99.90
21115;DHT22;10715;48.546;9.896;2024-03-29T01:01:50;1.00;99.90
21115;DHT22;10715;48.546;9.896;2024-03-29T01:04:15;1.00;99.90
21115;DHT22;10715;48.546;9.896;2024-03-29T01:06:41;1.00;99.90
21115;DHT22;10715;48.546;9.896;2024-03-29T01:09:08;1.00;99.90
21115;DHT22;10715;48.546;9.896;2024-03-29T01:11:40;1.00;99.90
21115;DHT22;10715;48.546;9.896;2024-03-29T01:14:06;1.00;99.90
21115;DHT22;10715;48.546;9.896;2024-03-29T01:16:33;1.00;99.90
21115;DHT22;10715;48.546;9.896;2024-03-29T01:18:59;1.00;99.90
21115;DHT22;10715;48.546;9.896;2024-03-29T01:21:26;1.00;99.90
21115;DHT22;10715;48.546;9.896;2024-03-29T01:23:52;1.00;99.90
21115;DHT22;10715;48.546;9.896;2024-03-29T01:26:18;1.00;99.90
21115;DHT22;10715;48.546;9.896;2024-03-29T01:28:44;1.00;99.90
21115;DHT22;10715;48.546;9.896;2024-03-29T01:31:09;0.90;99.90
21115;DHT22;10715;48.546;9.896;2024-03-29T01:33:35;1.00;99.90
21115;DHT22;10715;48.546;9.896;2024-03-29T01:36:07;1.00;99.90
21115;DHT22;10715;48.546;9.896;2024-03-29T01:38:33;0.90;99.90
21115;DHT22;10715;48.546;9.896;2024-03-29T01:40:59;0.90;99.90
21115;DHT22;10715;48.546;9.896;2024-03-29T01:43:25;0.90;99.90
21115;DHT22;10715;48.546;9.896;2024-03-29T01:45:54;0.90;99.90
21115;DHT22;10715;48.546;9.896;2024-03-29T01:48:24;0.90;99.90
21115;DHT22;10715;48.546;9.896;2024-03-29T01:50:51;0.90;99.90
21115;DHT22;10715;48.546;9.896;2024-03-29T01:53:19;0.90;99.90
21115;DHT22;10715;48.546;9.896;2024-03-29T01:55:45;0.90;99.90
21115;DHT22;10715;48.546;9.896;2024-03-29T01:58:11;0.80;99.90
21115;DHT22;10715;48.546;9.896;2024-03-29T02:01:03;0.80;99.90
21115;DHT22;10715;48.546;9.896;2024-03-29T02:03:30;0.80;99.90
21115;DHT22;10715;48.546;9.896;2024-03-29T02:05:56;0.80;99.90
21115;DHT22;10715;48.546;9.896;2024-03-29T02:08:23;0.80;99.90
21115;DHT22;10715;48.546;9.896;2024-03-29T02:10:49;0.80;99.90
21115;DHT22;10715;48.546;9.896;2024-03-29T02:13:15;0.80;99.90
21115;DHT22;10715;48.546;9.896;2024-03-29T02:15:41;0.80;99.90
21115;DHT22;10715;48.546;9.896;2024-03-29T02:18:07;0.80;99.90
21115;DHT22;10715;48.546;9.896;2024-03-29T02:20:34;0.80;99.90
21115;DHT22;10715;48.546;9.896;2024-03-29T02:23:17;0.80;99.90
21115;DHT22;10715;48.546;9.896;2024-03-29T02:25:43;0.80;99.90
21115;DHT22;10715;48.546;9.896;2024-03-29T02:28:09;0.80;99.90
21115;DHT22;10715;48.546;9.896;2024-03-29T02:30:35;0.80;99.90
21115;DHT22;10715;48.546;9.896;2024-03-29T02:33:01;0.80;99.90
21115;DHT22;10715;48.546;9.896;2024-03-29T02:35:27;0.80;99.90
21115;DHT22;10715;48.546;9.896;2024-03-29T02:37:54;0.80;99.90
21115;DHT22;10715;48.546;9.896;2024-03-29T02:40:20;0.80;99.90
21115;DHT22;10715;48.546;9.896;2024-03-29T02:42:47;0.80;99.90
21115;DHT22;10715;48.546;9.896;2024-03-29T02:45:13;0.90;99.90
21115;DHT22;10715;48.546;9.896;2024-03-29T02:47:39;0.90;99.90
21115;DHT22;10715;48.546;9.896;2024-03-29T02:50:06;0.80;99.90
21115;DHT22;10715;48.546;9.896;2024-03-29T02:52:31;0.90;99.90
21115;DHT22;10715;48.546;9.896;2024-03-29T02:54:57;0.90;99.90
21115;DHT22;10715;48.546;9.896;2024-03-29T02:57:23;0.90;99.90
21115;DHT22;10715;48.546;9.896;2024-03-29T02:59:48;0.90;99.90
21115;DHT22;10715;48.546;9.896;2024-03-29T03:02:14;0.90;99.90
21115;DHT22;10715;48.546;9.896;2024-03-29T03:04:40;0.90;99.90
21115;DHT22;10715;48.546;9.896;2024-03-29T03:07:05;0.90;99.90
21115;DHT22;10715;48.546;9.896;2024-03-29T03:09:49;1.00;99.90
21115;DHT22;10715;48.546;9.896;2024-03-29T03:12:33;1.00;99.90
21115;DHT22;10715;48.546;9.896;2024-03-29T03:14:59;1.00;99.90
21115;DHT22;10715;48.546;9.896;2024-03-29T03:17:26;1.00;99.90
21115;DHT22;10715;48.546;9.896;2024-03-29T03:19:52;1.00;99.90
21115;DHT22;10715;48.546;9.896;2024-03-29T03:22:18;1.00;99.90
21115;DHT22;10715;48.546;9.896;2024-03-29T03:24:44;1.00;99.90
21115;DHT22;10715;48.546;9.896;2024-03-29T03:27:10;1.10;99.90
21115;DHT22;10715;48.546;9.896;2024-03-29T03:29:35;1.20;99.90
21115;DHT22;10715;48.546;9.896;2024-03-29T03:32:01;1.20;99.90
21115;DHT22;10715;48.546;9.896;2024-03-29T03:34:27;1.20;99.90
21115;DHT22;10715;48.546;9.896;2024-03-29T03:36:53;1.20;99.90
21115;DHT22;10715;48.546;9.896;2024-03-29T03:39:18;1.30;99.90
21115;DHT22;10715;48.546;9.896;2024-03-29T03:41:44;1.30;99.90
21115;DHT22;10715;48.546;9.896;2024-03-29T03:44:10;1.30;99.90
21115;DHT22;10715;48.546;9.896;2024-03-29T03:46:35;1.30;99.90
21115;DHT22;10715;48.546;9.896;2024-03-29T03:49:01;1.30;99.90
21115;DHT22;10715;48.546;9.896;2024-03-29T03:51:27;1.30;99.90
21115;DHT22;10715;48.546;9.896;2024-03-29T03:53:52;1.30;99.90
21115;DHT22;10715;48.546;9.896;2024-03-29T03:56:19;1.40;99.90
21115;DHT22;10715;48.546;9.896;2024-03-29T03:58:45;1.40;99.90
21115;DHT22;10715;48.546;9.896;2024-03-29T04:01:10;1.50;99.90
21115;DHT22;10715;48.546;9.896;2024-03-29T04:03:36;1.60;99.90
21115;DHT22;10715;48.546;9.896;2024-03-29T04:06:05;1.70;99.90
21115;DHT22;10715;48.546;9.896;2024-03-29T04:08:31;1.70;99.90
21115;DHT22;10715;48.546;9.896;2024-03-29T04:10:57;1.80;99.90
21115;DHT22;10715;48.546;9.896;2024-03-29T04:13:23;1.90;99.90
21115;DHT22;10715;48.546;9.896;2024-03-29T04:15:49;2.00;99.90
21115;DHT22;10715;48.546;9.896;2024-03-29T04:18:15;2.00;99.90
21115;DHT22;10715;48.546;9.896;2024-03-29T04:20:40;2.00;99.90
21115;DHT22;10715;48.546;9.896;2024-03-29T04:23:07;2.00;99.90
21115;DHT22;10715;48.546;9.896;2024-03-29T04:25:32;2.10;99.90
21115;DHT22;10715;48.546;9.896;2024-03-29T04:27:58;2.10;99.90
21115;DHT22;10715;48.546;9.896;2024-03-29T04:30:24;2.20;99.90
21115;DHT22;10715;48.546;9.896;2024-03-29T04:32:50;2.20;99.90
21115;DHT22;10715;48.546;9.896;2024-03-29T04:35:16;2.10;99.90
21115;DHT22;10715;48.546;9.896;2024-03-29T04:37:41;2.10;99.90
21115;DHT22;10715;48.546;9.896;2024-03-29T04:40:07;2.10;99.90
21115;DHT22;10715;48.546;9.896;2024-03-29T04:42:33;2.10;99.90
21115;DHT22;10715;48.546;9.896;2024-03-29T04:44:59;2.20;99.90
21115;DHT22;10715;48.546;9.896;2024-03-29T04:47:25;2.10;99.90
21115;DHT22;10715;48.546;9.896;2024-03-29T04:49:51;2.10;99.90
21115;DHT22;10715;48.546;9.896;2024-03-29T04:52:17;2.10;99.90
21115;DHT22;10715;48.546;9.896;2024-03-29T04:54:42;2.20;99.90
21115;DHT22;10715;48.546;9.896;2024-03-29T04:57:09;2.20;99.90
21115;DHT22;10715;48.546;9.896;2024-03-29T04:59:35;2.20;99.90
21115;DHT22;10715;48.546;9.896;2024-03-29T05:02:02;2.20;99.90
21115;DHT22;10715;48.546;9.896;2024-03-29T05:04:28;2.20;99.90
21115;DHT22;10715;48.546;9.896;2024-03-29T05:06:58;2.20;99.90
21115;DHT22;10715;48.546;9.896;2024-03-29T05:09:24;2.20;99.90
21115;DHT22;10715;48.546;9.896;2024-03-29T05:11:51;2.20;99.90
21115;DHT22;10715;48.546;9.896;2024-03-29T05:14:18;2.20;99.90
21115;DHT22;10715;48.546;9.896;2024-03-29T05:16:45;2.20;99.90
21115;DHT22;10715;48.546;9.896;2024-03-29T05:19:11;2.20;99.90
21115;DHT22;10715;48.546;9.896;2024-03-29T05:21:37;2.20;99.90
21115;DHT22;10715;48.546;9.896;2024-03-29T05:24:03;2.20;99.90
21115;DHT22;10715;48.546;9.896;2024-03-29T05:26:29;2.20;99.90
21115;DHT22;10715;48.546;9.896;2024-03-29T05:28:55;2.20;99.90
21115;DHT22;10715;48.546;9.896;2024-03-29T05:31:24;2.30;99.90
21115;DHT22;10715;48.546;9.896;2024-03-29T05:33:50;2.30;99.90
21115;DHT22;10715;48.546;9.896;2024-03-29T05:36:16;2.30;99.90
21115;DHT22;10715;48.546;9.896;2024-03-29T05:38:42;2.30;99.90
21115;DHT22;10715;48.546;9.896;2024-03-29T05:41:09;2.30;99.90
21115;DHT22;10715;48.546;9.896;2024-03-29T05:43:34;2.30;99.90
21115;DHT22;10715;48.546;9.896;2024-03-29T05:46:00;2.30;99.90
21115;DHT22;10715;48.546;9.896;2024-03-29T05:48:27;2.30;99.90
21115;DHT22;10715;48.546;9.896;2024-03-29T05:50:52;2.30;99.90
21115;DHT22;10715;48.546;9.896;2024-03-29T05:53:18;2.30;99.90
21115;DHT22;10715;48.546;9.896;2024-03-29T05:55:44;2.30;99.90
21115;DHT22;10715;48.546;9.896;2024-03-29T05:58:10;2.30;99.90
21115;DHT22;10715;48.546;9.896;2024-03-29T06:00:35;2.30;99.90
21115;DHT22;10715;48.546;9.896;2024-03-29T06:03:02;2.40;99.90
21115;DHT22;10715;48.546;9.896;2024-03-29T06:05:31;2.40;99.90
21115;DHT22;10715;48.546;9.896;2024-03-29T06:07:56;2.40;99.90
21115;DHT22;10715;48.546;9.896;2024-03-29T06:10:22;2.50;99.90
21115;DHT22;10715;48.546;9.896;2024-03-29T06:12:48;2.60;99.90
21115;DHT22;10715;48.546;9.896;2024-03-29T06:15:14;2.60;99.90
21115;DHT22;10715;48.546;9.896;2024-03-29T06:17:58;2.60;99.90
21115;DHT22;10715;48.546;9.896;2024-03-29T06:20:24;2.70;99.90
21115;DHT22;10715;48.546;9.896;2024-03-29T06:22:50;2.70;99.90
21115;DHT22;10715;48.546;9.896;2024-03-29T06:25:15;2.70;99.90
21115;DHT22;10715;48.546;9.896;2024-03-29T06:27:42;2.80;99.90
21115;DHT22;10715;48.546;9.896;2024-03-29T06:30:14;2.80;99.90
21115;DHT22;10715;48.546;9.896;2024-03-29T06:32:41;2.80;99.90
21115;DHT22;10715;48.546;9.896;2024-03-29T06:35:07;2.80;99.90
21115;DHT22;10715;48.546;9.896;2024-03-29T06:37:32;2.80;99.90
21115;DHT22;10715;48.546;9.896;2024-03-29T06:39:58;2.90;99.90
21115;DHT22;10715;48.546;9.896;2024-03-29T06:42:24;2.90;99.90
21115;DHT22;10715;48.546;9.896;2024-03-29T06:44:49;3.00;99.90
21115;DHT22;10715;48.546;9.896;2024-03-29T06:47:15;3.00;99.90
21115;DHT22;10715;48.546;9.896;2024-03-29T06:49:41;3.10;99.90
21115;DHT22;10715;48.546;9.896;2024-03-29T06:52:07;3.10;99.90
21115;DHT22;10715;48.546;9.896;2024-03-29T06:54:33;3.20;99.90
21115;DHT22;10715;48.546;9.896;2024-03-29T06:56:59;3.20;99.90
21115;DHT22;10715;48.546;9.896;2024-03-29T06:59:25;3.30;99.90
21115;DHT22;10715;48.546;9.896;2024-03-29T07:01:51;3.30;99.90
21115;DHT22;10715;48.546;9.896;2024-03-29T07:04:20;3.40;99.90
21115;DHT22;10715;48.546;9.896;2024-03-29T07:06:46;3.40;99.90
21115;DHT22;10715;48.546;9.896;2024-03-29T07:09:14;3.40;99.90
21115;DHT22;10715;48.546;9.896;2024-03-29T07:11:40;3.50;99.90
21115;DHT22;10715;48.546;9.896;2024-03-29T07:14:05;3.50;99.90
21115;DHT22;10715;48.546;9.896;2024-03-29T07:16:31;3.60;99.90
21115;DHT22;10715;48.546;9.896;2024-03-29T07:18:57;3.60;99.90
21115;DHT22;10715;48.546;9.896;2024-03-29T07:21:24;3.60;99.90
21115;DHT22;10715;48.546;9.896;2024-03-29T07:23:50;3.70;99.90
21115;DHT22;10715;48.546;9.896;2024-03-29T07:26:16;3.70;99.90
21115;DHT22;10715;48.546;9.896;2024-03-29T07:28:41;3.70;99.90
21115;DHT22;10715;48.546;9.896;2024-03-29T07:31:08;3.80;99.90
21115;DHT22;10715;48.546;9.896;2024-03-29T07:33:34;3.80;99.90
21115;DHT22;10715;48.546;9.896;2024-03-29T07:36:00;3.80;99.90
21115;DHT22;10715;48.546;9.896;2024-03-29T07:38:26;3.80;99.90
21115;DHT22;10715;48.546;9.896;2024-03-29T07:40:51;3.90;99.90
21115;DHT22;10715;48.546;9.896;2024-03-29T07:43:21;3.90;99.90
21115;DHT22;10715;48.546;9.896;2024-03-29T07:45:47;3.90;99.90
21115;DHT22;10715;48.546;9.896;2024-03-29T07:48:15;4.00;99.90
21115;DHT22;10715;48.546;9.896;2024-03-29T07:50:44;4.00;99.90
21115;DHT22;10715;48.546;9.896;2024-03-29T07:53:10;4.00;99.90
21115;DHT22;10715;48.546;9.896;2024-03-29T07:55:38;4.00;99.90
21115;DHT22;10715;48.546;9.896;2024-03-29T07:58:04;4.00;99.90
21115;DHT22;10715;48.546;9.896;2024-03-29T08:00:34;4.10;99.90
21115;DHT22;10715;48.546;9.896;2024-03-29T08:03:03;4.10;99.90
21115;DHT22;10715;48.546;9.896;2024-03-29T08:05:29;4.10;99.90
21115;DHT22;10715;48.546;9.896;2024-03-29T08:07:54;4.20;99.90
21115;DHT22;10715;48.546;9.896;2024-03-29T08:10:20;4.20;99.90
21115;DHT22;10715;48.546;9.896;2024-03-29T08:12:46;4.20;99.90
21115;DHT22;10715;48.546;9.896;2024-03-29T08:15:12;4.30;99.90
21115;DHT22;10715;48.546;9.896;2024-03-29T08:17:37;4.30;99.90
21115;DHT22;10715;48.546;9.896;2024-03-29T08:20:04;4.40;99.90
21115;DHT22;10715;48.546;9.896;2024-03-29T08:22:30;4.40;99.90
21115;DHT22;10715;48.546;9.896;2024-03-29T08:24:58;4.50;99.90
21115;DHT22;10715;48.546;9.896;2024-03-29T08:27:25;4.50;99.90
21115;DHT22;10715;48.546;9.896;2024-03-29T08:29:51;4.60;99.90
21115;DHT22;10715;48.546;9.896;2024-03-29T08:32:17;4.60;99.90
21115;DHT22;10715;48.546;9.896;2024-03-29T08:34:43;4.70;99.90
21115;DHT22;10715;48.546;9.896;2024-03-29T08:37:09;4.80;99.90
21115;DHT22;10715;48.546;9.896;2024-03-29T08:39:34;4.90;99.90
21115;DHT22;10715;48.546;9.896;2024-03-29T08:42:01;5.00;99.90
21115;DHT22;10715;48.546;9.896;2024-03-29T08:44:34;5.10;99.90
21115;DHT22;10715;48.546;9.896;2024-03-29T08:47:00;5.20;99.90
21115;DHT22;10715;48.546;9.896;2024-03-29T08:49:29;5.20;99.90
21115;DHT22;10715;48.546;9.896;2024-03-29T08:51:55;5.30;99.90
21115;DHT22;10715;48.546;9.896;2024-03-29T08:54:21;5.40;99.90
21115;DHT22;10715;48.546;9.896;2024-03-29T08:56:47;5.60;99.90
21115;DHT22;10715;48.546;9.896;2024-03-29T08:59:13;5.60;99.90
21115;DHT22;10715;48.546;9.896;2024-03-29T09:01:44;5.70;99.90
21115;DHT22;10715;48.546;9.896;2024-03-29T09:04:10;5.80;99.90
21115;DHT22;10715;48.546;9.896;2024-03-29T09:06:39;5.80;99.90
21115;DHT22;10715;48.546;9.896;2024-03-29T09:09:06;5.90;99.90
21115;DHT22;10715;48.546;9.896;2024-03-29T09:11:32;6.00;99.90
21115;DHT22;10715;48.546;9.896;2024-03-29T09:13:58;6.10;99.90
21115;DHT22;10715;48.546;9.896;2024-03-29T09:16:25;6.20;99.90
21115;DHT22;10715;48.546;9.896;2024-03-29T09:18:51;6.30;99.90
21115;DHT22;10715;48.546;9.896;2024-03-29T09:21:17;6.40;99.90
21115;DHT22;10715;48.546;9.896;2024-03-29T09:23:45;6.40;99.90
21115;DHT22;10715;48.546;9.896;2024-03-29T09:26:11;6.50;99.90
21115;DHT22;10715;48.546;9.896;2024-03-29T09:28:39;6.60;99.90
21115;DHT22;10715;48.546;9.896;2024-03-29T09:31:05;6.70;99.90
21115;DHT22;10715;48.546;9.896;2024-03-29T09:33:31;6.80;99.90
21115;DHT22;10715;48.546;9.896;2024-03-29T09:35:58;6.80;99.90
21115;DHT22;10715;48.546;9.896;2024-03-29T09:38:25;6.90;99.90
21115;DHT22;10715;48.546;9.896;2024-03-29T09:41:15;7.00;99.90
21115;DHT22;10715;48.546;9.896;2024-03-29T09:43:42;7.00;99.90
21115;DHT22;10715;48.546;9.896;2024-03-29T09:46:11;7.10;99.90
21115;DHT22;10715;48.546;9.896;2024-03-29T09:48:42;7.10;99.90
21115;DHT22;10715;48.546;9.896;2024-03-29T09:51:09;7.20;99.90
21115;DHT22;10715;48.546;9.896;2024-03-29T09:53:36;7.20;99.90
21115;DHT22;10715;48.546;9.896;2024-03-29T09:56:06;7.30;99.90
21115;DHT22;10715;48.546;9.896;2024-03-29T09:58:33;7.30;99.90
21115;DHT22;10715;48.546;9.896;2024-03-29T10:01:00;7.40;99.90
21115;DHT22;10715;48.546;9.896;2024-03-29T10:03:25;7.50;99.90
21115;DHT22;10715;48.546;9.896;2024-03-29T10:05:59;7.50;99.90
21115;DHT22;10715;48.546;9.896;2024-03-29T10:08:30;7.60;99.90
21115;DHT22;10715;48.546;9.896;2024-03-29T10:10:59;7.60;99.90
21115;DHT22;10715;48.546;9.896;2024-03-29T10:13:26;7.70;99.90
21115;DHT22;10715;48.546;9.896;2024-03-29T10:15:55;7.70;99.90
21115;DHT22;10715;48.546;9.896;2024-03-29T10:18:22;7.80;99.90
21115;DHT22;10715;48.546;9.896;2024-03-29T10:21:06;7.80;99.90
21115;DHT22;10715;48.546;9.896;2024-03-29T10:23:33;7.90;99.90
21115;DHT22;10715;48.546;9.896;2024-03-29T10:25:59;7.90;99.90
21115;DHT22;10715;48.546;9.896;2024-03-29T10:28:31;7.90;99.90
21115;DHT22;10715;48.546;9.896;2024-03-29T10:30:58;7.90;99.90
21115;DHT22;10715;48.546;9.896;2024-03-29T10:33:27;8.00;99.90
21115;DHT22;10715;48.546;9.896;2024-03-29T10:35:54;7.90;99.90
21115;DHT22;10715;48.546;9.896;2024-03-29T10:38:21;7.90;99.90
21115;DHT22;10715;48.546;9.896;2024-03-29T10:40:48;7.90;99.90
21115;DHT22;10715;48.546;9.896;2024-03-29T10:43:16;7.90;99.90
21115;DHT22;10715;48.546;9.896;2024-03-29T10:45:42;7.90;99.90
21115;DHT22;10715;48.546;9.896;2024-03-29T10:48:09;7.90;99.90
21115;DHT22;10715;48.546;9.896;2024-03-29T10:50:38;7.90;99.90
21115;DHT22;10715;48.546;9.896;2024-03-29T10:53:06;7.80;99.90
21115;DHT22;10715;48.546;9.896;2024-03-29T10:55:36;7.80;99.90
21115;DHT22;10715;48.546;9.896;2024-03-29T10:58:04;7.80;99.90
21115;DHT22;10715;48.546;9.896;2024-03-29T11:00:34;7.80;99.90
21115;DHT22;10715;48.546;9.896;2024-03-29T11:03:32;7.80;99.90
21115;DHT22;10715;48.546;9.896;2024-03-29T11:06:02;7.90;99.90
21115;DHT22;10715;48.546;9.896;2024-03-29T11:08:34;7.90;99.90
21115;DHT22;10715;48.546;9.896;2024-03-29T11:11:05;7.90;99.90
21115;DHT22;10715;48.546;9.896;2024-03-29T11:16:19;8.00;99.90
21115;DHT22;10715;48.546;9.896;2024-03-29T11:18:46;8.00;99.90
21115;DHT22;10715;48.546;9.896;2024-03-29T11:21:16;8.10;99.90
21115;DHT22;10715;48.546;9.896;2024-03-29T11:23:49;8.10;99.90
21115;DHT22;10715;48.546;9.896;2024-03-29T11:26:16;8.20;99.90
21115;DHT22;10715;48.546;9.896;2024-03-29T11:28:48;8.30;99.90
21115;DHT22;10715;48.546;9.896;2024-03-29T11:31:15;8.30;99.90
21115;DHT22;10715;48.546;9.896;2024-03-29T11:36:22;8.60;99.90
21115;DHT22;10715;48.546;9.896;2024-03-29T11:38:52;8.70;99.90
21115;DHT22;10715;48.546;9.896;2024-03-29T11:41:20;8.80;99.90
21115;DHT22;10715;48.546;9.896;2024-03-29T11:43:50;8.90;99.90
21115;DHT22;10715;48.546;9.896;2024-03-29T11:46:17;9.00;99.90
21115;DHT22;10715;48.546;9.896;2024-03-29T11:48:43;9.10;99.90
21115;DHT22;10715;48.546;9.896;2024-03-29T11:51:11;9.20;99.90
21115;DHT22;10715;48.546;9.896;2024-03-29T11:53:40;9.40;99.90
21115;DHT22;10715;48.546;9.896;2024-03-29T11:56:06;9.40;99.90
21115;DHT22;10715;48.546;9.896;2024-03-29T11:58:33;9.50;99.90
21115;DHT22;10715;48.546;9.896;2024-03-29T12:00:59;9.50;99.90
21115;DHT22;10715;48.546;9.896;2024-03-29T12:03:27;9.60;99.90
21115;DHT22;10715;48.546;9.896;2024-03-29T12:05:54;9.60;99.90
21115;DHT22;10715;48.546;9.896;2024-03-29T12:08:21;9.70;99.90
21115;DHT22;10715;48.546;9.896;2024-03-29T12:10:47;9.80;99.90
21115;DHT22;10715;48.546;9.896;2024-03-29T12:13:16;9.90;99.90
21115;DHT22;10715;48.546;9.896;2024-03-29T12:15:42;9.90;99.90
21115;DHT22;10715;48.546;9.896;2024-03-29T12:18:08;10.10;99.90
21115;DHT22;10715;48.546;9.896;2024-03-29T12:20:38;10.20;99.90
21115;DHT22;10715;48.546;9.896;2024-03-29T12:23:09;10.30;99.90
21115;DHT22;10715;48.546;9.896;2024-03-29T12:25:37;10.40;99.90
21115;DHT22;10715;48.546;9.896;2024-03-29T12:28:03;10.40;99.90
21115;DHT22;10715;48.546;9.896;2024-03-29T12:30:30;10.40;99.90
21115;DHT22;10715;48.546;9.896;2024-03-29T12:33:07;10.50;99.90
21115;DHT22;10715;48.546;9.896;2024-03-29T12:35:33;10.60;99.90
21115;DHT22;10715;48.546;9.896;2024-03-29T12:38:00;10.70;99.90
21115;DHT22;10715;48.546;9.896;2024-03-29T12:40:27;10.80;99.90
21115;DHT22;10715;48.546;9.896;2024-03-29T12:42:56;10.80;99.90
21115;DHT22;10715;48.546;9.896;2024-03-29T12:45:22;10.90;99.90
21115;DHT22;10715;48.546;9.896;2024-03-29T12:47:49;11.00;99.90
21115;DHT22;10715;48.546;9.896;2024-03-29T12:50:31;11.00;99.90
21115;DHT22;10715;48.546;9.896;2024-03-29T12:52:59;11.10;99.90
21115;DHT22;10715;48.546;9.896;2024-03-29T12:55:26;11.10;99.90
21115;DHT22;10715;48.546;9.896;2024-03-29T12:57:57;11.20;99.90
21115;DHT22;10715;48.546;9.896;2024-03-29T13:00:25;11.20;99.90
21115;DHT22;10715;48.546;9.896;2024-03-29T13:02:51;11.30;99.90
21115;DHT22;10715;48.546;9.896;2024-03-29T13:05:17;11.30;99.90
21115;DHT22;10715;48.546;9.896;2024-03-29T13:07:43;11.40;99.90
21115;DHT22;10715;48.546;9.896;2024-03-29T13:10:09;11.50;99.90
21115;DHT22;10715;48.546;9.896;2024-03-29T13:12:45;11.60;99.90
21115;DHT22;10715;48.546;9.896;2024-03-29T13:15:23;11.60;99.90
21115;DHT22;10715;48.546;9.896;2024-03-29T13:17:55;11.70;99.90
21115;DHT22;10715;48.546;9.896;2024-03-29T13:20:23;11.70;99.90
21115;DHT22;10715;48.546;9.896;2024-03-29T13:22:50;11.80;99.90
21115;DHT22;10715;48.546;9.896;2024-03-29T13:25:17;11.80;99.90
21115;DHT22;10715;48.546;9.896;2024-03-29T13:27:46;11.80;99.90
21115;DHT22;10715;48.546;9.896;2024-03-29T13:30:13;11.80;99.90
21115;DHT22;10715;48.546;9.896;2024-03-29T13:32:40;11.90;99.90
21115;DHT22;10715;48.546;9.896;2024-03-29T13:35:08;11.90;99.90
21115;DHT22;10715;48.546;9.896;2024-03-29T13:37:41;11.90;99.90
21115;DHT22;10715;48.546;9.896;2024-03-29T13:40:09;12.00;99.90
21115;DHT22;10715;48.546;9.896;2024-03-29T13:42:38;12.00;99.90
21115;DHT22;10715;48.546;9.896;2024-03-29T13:45:05;12.10;99.90
21115;DHT22;10715;48.546;9.896;2024-03-29T13:47:38;12.10;99.90
21115;DHT22;10715;48.546;9.896;2024-03-29T13:50:08;12.20;99.90
21115;DHT22;10715;48.546;9.896;2024-03-29T13:52:35;12.20;99.90
21115;DHT22;10715;48.546;9.896;2024-03-29T13:55:02;12.30;99.90
21115;DHT22;10715;48.546;9.896;2024-03-29T13:57:28;12.30;99.90
21115;DHT22;10715;48.546;9.896;2024-03-29T13:59:54;12.40;99.90
21115;DHT22;10715;48.546;9.896;2024-03-29T14:02:20;12.50;99.90
21115;DHT22;10715;48.546;9.896;2024-03-29T14:04:48;12.50;99.90
21115;DHT22;10715;48.546;9.896;2024-03-29T14:07:15;12.50;99.90
21115;DHT22;10715;48.546;9.896;2024-03-29T14:09:43;12.60;99.90
21115;DHT22;10715;48.546;9.896;2024-03-29T14:12:09;12.60;99.90
21115;DHT22;10715;48.546;9.896;2024-03-29T14:14:35;12.70;99.90
21115;DHT22;10715;48.546;9.896;2024-03-29T14:17:02;12.80;99.90
21115;DHT22;10715;48.546;9.896;2024-03-29T14:19:33;12.80;99.90
21115;DHT22;10715;48.546;9.896;2024-03-29T14:22:00;13.00;99.90
21115;DHT22;10715;48.546;9.896;2024-03-29T14:24:26;13.00;99.90
21115;DHT22;10715;48.546;9.896;2024-03-29T14:26:52;13.10;99.90
21115;DHT22;10715;48.546;9.896;2024-03-29T14:29:18;13.20;99.90
21115;DHT22;10715;48.546;9.896;2024-03-29T14:31:47;13.30;99.90
21115;DHT22;10715;48.546;9.896;2024-03-29T14:34:13;13.30;99.90
21115;DHT22;10715;48.546;9.896;2024-03-29T14:36:39;13.30;99.90
21115;DHT22;10715;48.546;9.896;2024-03-29T14:39:05;13.30;99.90
21115;DHT22;10715;48.546;9.896;2024-03-29T14:41:31;13.40;99.90
21115;DHT22;10715;48.546;9.896;2024-03-29T14:43:57;13.40;99.90
21115;DHT22;10715;48.546;9.896;2024-03-29T14:46:23;13.40;99.90
21115;DHT22;10715;48.546;9.896;2024-03-29T14:48:49;13.50;99.90
21115;DHT22;10715;48.546;9.896;2024-03-29T14:51:16;13.60;99.90
21115;DHT22;10715;48.546;9.896;2024-03-29T14:53:42;13.60;99.90
21115;DHT22;10715;48.546;9.896;2024-03-29T14:56:13;13.60;99.90
21115;DHT22;10715;48.546;9.896;2024-03-29T14:58:39;13.70;99.90
21115;DHT22;10715;48.546;9.896;2024-03-29T15:01:05;13.70;99.90
21115;DHT22;10715;48.546;9.896;2024-03-29T15:03:31;13.80;99.90
21115;DHT22;10715;48.546;9.896;2024-03-29T15:05:57;13.80;99.90
21115;DHT22;10715;48.546;9.896;2024-03-29T15:08:22;13.90;99.90
21115;DHT22;10715;48.546;9.896;2024-03-29T15:10:56;13.90;99.90
21115;DHT22;10715;48.546;9.896;2024-03-29T15:13:23;13.90;99.90
21115;DHT22;10715;48.546;9.896;2024-03-29T15:15:59;14.00;99.90
21115;DHT22;10715;48.546;9.896;2024-03-29T15:18:26;14.00;99.90
21115;DHT22;10715;48.546;9.896;2024-03-29T15:20:56;14.00;99.90
21115;DHT22;10715;48.546;9.896;2024-03-29T15:23:23;14.00;99.90
21115;DHT22;10715;48.546;9.896;2024-03-29T15:25:59;14.00;99.90
21115;DHT22;10715;48.546;9.896;2024-03-29T15:28:26;14.10;99.90
21115;DHT22;10715;48.546;9.896;2024-03-29T15:31:18;14.10;99.90
21115;DHT22;10715;48.546;9.896;2024-03-29T15:33:51;14.10;99.90
21115;DHT22;10715;48.546;9.896;2024-03-29T15:36:17;14.10;99.90
21115;DHT22;10715;48.546;9.896;2024-03-29T15:38:44;14.10;99.90
21115;DHT22;10715;48.546;9.896;2024-03-29T15:41:14;14.10;99.90
21115;DHT22;10715;48.546;9.896;2024-03-29T15:43:40;14.10;99.90
21115;DHT22;10715;48.546;9.896;2024-03-29T15:46:06;14.10;99.90
21115;DHT22;10715;48.546;9.896;2024-03-29T15:48:32;14.10;99.90